Time;durP1;ratioP1;P1;durP2;ratioP2;P2;SDS_P1;SDS_P2;PMS_P1;PMS_P2;Temp;Humidity;BMP_temperature;BMP_pressure;BME280_temperature;BME280_humidity;BME280_pressure;Samples;Min_cycle;Max_cycle;Signal;HPM_P1;HPM_P2
2023/01/19 03:27:12;;;;;;;;;;;;;;;4.10;100.00;98602.91;5032279;28;19927;-90
2023/01/19 03:29:40;;;;;;;;;;;;;;;4.09;100.00;98600.31;5034922;28;19925;-89
2023/01/19 03:32:07;;;;;;;;;;;;;;;4.09;100.00;98598.56;5017135;28;19917;-86
2023/01/19 03:34:33;;;;;;;;;;;;;;;4.06;100.00;98606.53;5034498;28;20011;-84
2023/01/19 03:37:02;;;;;;;;;;;;;;;4.06;100.00;98601.28;5034583;28;19923;-83
2023/01/19 03:39:27;;;;;;;;;;;;;;;4.08;100.00;98603.84;5033071;28;19979;-84
2023/01/19 03:42:01;;;;;;;;;;;;;;;4.07;100.00;98597.75;5034075;28;19921;-84
2023/01/19 03:44:28;;;;;;;;;;;;;;;4.05;100.00;98607.41;5034310;28;19913;-87
2023/01/19 03:46:54;;;;;;;;;;;;;;;4.01;100.00;98608.44;5034314;28;20407;-83
2023/01/19 03:49:19;;;;;;;;;;;;;;;3.99;100.00;98603.25;5034372;28;19967;-84
2023/01/19 03:51:45;;;;;;;;;;;;;;;4.01;100.00;98597.97;5016654;28;19961;-83
2023/01/19 03:54:10;;;;;;;;;;;;;;;4.01;100.00;98608.44;5032935;28;19923;-83
2023/01/19 03:56:35;;;;;;;;;;;;;;;3.98;100.00;98609.41;5016434;28;19917;-83
2023/01/19 03:59:00;;;;;;;;;;;;;;;3.96;100.00;98613.84;5034013;28;19917;-82
2023/01/19 04:01:26;;;;;;;;;;;;;;;4.00;100.00;98610.22;5034000;28;20020;-82
2023/01/19 04:03:51;;;;;;;;;;;;;;;3.98;100.00;98614.66;5034070;28;19917;-84
2023/01/19 04:06:17;;;;;;;;;;;;;;;3.98;100.00;98614.66;5034233;28;20352;-82
2023/01/19 04:08:43;;;;;;;;;;;;;;;3.96;100.00;98618.25;5014928;28;19924;-83
2023/01/19 04:11:09;;;;;;;;;;;;;;;3.99;100.00;98620.78;5016213;28;19917;-82
2023/01/19 04:13:34;;;;;;;;;;;;;;;3.97;100.00;98617.31;5034120;28;20295;-82
2023/01/19 04:16:00;;;;;;;;;;;;;;;3.94;100.00;98617.41;5009987;28;20381;-83
2023/01/19 04:18:29;;;;;;;;;;;;;;;3.96;100.00;98621.72;5033764;28;19921;-82
2023/01/19 04:20:54;;;;;;;;;;;;;;;3.94;100.00;98615.69;5033798;28;20279;-82
2023/01/19 04:23:19;;;;;;;;;;;;;;;3.91;100.00;98617.53;5032436;28;20209;-83
2023/01/19 04:25:45;;;;;;;;;;;;;;;3.90;100.00;98616.69;5033545;28;20140;-82
2023/01/19 04:28:10;;;;;;;;;;;;;;;3.94;100.00;98623.53;5033893;28;19963;-83
2023/01/19 04:30:35;;;;;;;;;;;;;;;3.88;100.00;98626.38;5015816;28;19927;-84
2023/01/19 04:33:01;;;;;;;;;;;;;;;3.79;100.00;98619.66;5015950;28;20253;-84
2023/01/19 04:35:27;;;;;;;;;;;;;;;3.87;100.00;98619.41;5033584;28;20366;-84
2023/01/19 04:37:52;;;;;;;;;;;;;;;3.82;100.00;98614.31;5015729;28;20340;-85
2023/01/19 04:40:18;;;;;;;;;;;;;;;3.77;100.00;98611.00;5014534;28;19925;-84
2023/01/19 04:42:44;;;;;;;;;;;;;;;3.82;100.00;98614.31;5016039;28;20276;-85
2023/01/19 04:45:10;;;;;;;;;;;;;;;3.84;100.00;98616.03;5015762;28;19917;-85
2023/01/19 04:47:36;;;;;;;;;;;;;;;3.84;100.00;98627.38;5033216;28;20395;-85
2023/01/19 04:50:01;;;;;;;;;;;;;;;3.81;100.00;98623.09;5033477;28;19917;-84
2023/01/19 08:40:44;;;;;;;;;;;;;;;3.72;100.00;98780.63;5350602;23;19932;-90
2023/01/19 08:43:11;;;;;;;;;;;;;;;3.69;100.00;98774.63;5033403;28;19927;-88
2023/01/19 08:45:40;;;;;;;;;;;;;;;3.72;100.00;98774.50;5025573;28;20432;-87
2023/01/19 08:48:05;;;;;;;;;;;;;;;3.70;100.00;98781.56;5030384;28;19921;-88
2023/01/19 08:50:31;;;;;;;;;;;;;;;3.72;100.00;98780.63;5010252;28;19928;-85
2023/01/19 08:52:58;;;;;;;;;;;;;;;3.66;100.00;98778.19;5010881;28;19921;-85
2023/01/19 08:55:24;;;;;;;;;;;;;;;3.71;100.00;98778.03;5028501;28;20291;-85
2023/01/19 08:57:52;;;;;;;;;;;;;;;3.69;100.00;98775.47;5027032;28;20019;-86
2023/01/19 09:00:18;;;;;;;;;;;;;;;3.68;100.00;98781.59;5002849;28;20031;-88
2023/01/19 09:02:43;;;;;;;;;;;;;;;3.70;100.00;98777.19;5005373;28;19921;-86
2023/01/19 09:05:09;;;;;;;;;;;;;;;3.69;100.00;98780.72;5005630;28;19932;-85
2023/01/19 09:07:37;;;;;;;;;;;;;;;3.67;100.00;98779.03;5021000;28;19999;-89
2023/01/19 09:10:03;;;;;;;;;;;;;;;3.73;100.00;98777.06;5002984;28;19987;-92
2023/01/19 09:12:28;;;;;;;;;;;;;;;3.72;100.00;98785.84;5026509;28;19932;-86
2023/01/19 09:14:54;;;;;;;;;;;;;;;3.75;100.00;98791.00;5023562;28;20364;-85
2023/01/19 09:17:19;;;;;;;;;;;;;;;3.73;100.00;98790.16;5009789;28;20296;-85
2023/01/19 09:19:44;;;;;;;;;;;;;;;3.71;100.00;98794.63;4989788;28;19940;-85
2023/01/19 09:22:09;;;;;;;;;;;;;;;3.71;100.00;98796.38;4997953;28;19928;-85
2023/01/19 09:24:35;;;;;;;;;;;;;;;3.76;100.00;98803.19;5008368;28;19918;-84
2023/01/19 09:27:01;;;;;;;;;;;;;;;3.73;100.00;98798.03;4998265;28;19921;-84
2023/01/19 09:29:26;;;;;;;;;;;;;;;3.74;100.00;98798.91;5010099;28;20387;-84
2023/01/19 09:31:51;;;;;;;;;;;;;;;3.80;100.00;98789.09;5015282;28;19925;-86
2023/01/19 09:34:16;;;;;;;;;;;;;;;3.79;100.00;98800.47;5005569;28;19921;-86
2023/01/19 09:36:42;;;;;;;;;;;;;;;3.82;100.00;98796.91;4999428;28;19921;-86
2023/01/19 09:39:08;;;;;;;;;;;;;;;4.68;100.00;98801.09;5002750;28;19925;-84
2023/01/19 09:41:35;;;;;;;;;;;;;;;4.87;100.00;98794.31;5028858;28;20339;-88
2023/01/19 09:44:00;;;;;;;;;;;;;;;4.38;100.00;98806.47;5010279;28;20368;-84
2023/01/19 09:46:32;;;;;;;;;;;;;;;4.22;100.00;98800.03;5012165;28;19929;-84
2023/01/19 09:49:03;;;;;;;;;;;;;;;4.15;100.00;98802.84;5025085;28;19940;-87
2023/01/19 09:51:32;;;;;;;;;;;;;;;4.11;100.00;98805.63;5016203;28;20383;-85
2023/01/19 09:53:57;;;;;;;;;;;;;;;4.11;100.00;98813.47;5017044;28;19921;-87
2023/01/19 09:56:23;;;;;;;;;;;;;;;4.09;100.00;98813.53;5018600;28;19924;-88
2023/01/19 09:58:49;;;;;;;;;;;;;;;4.07;100.00;98814.47;5018594;28;19917;-83
2023/01/19 10:01:17;;;;;;;;;;;;;;;4.05;100.00;98814.53;5036474;28;19940;-87
2023/01/19 10:03:43;;;;;;;;;;;;;;;4.05;100.00;98818.91;5018862;28;19917;-86
2023/01/19 10:06:10;;;;;;;;;;;;;;;4.03;100.00;98828.59;5036378;28;19917;-86
2023/01/19 10:08:40;;;;;;;;;;;;;;;4.00;100.00;98821.69;5035783;28;19929;-89
2023/01/19 10:11:16;;;;;;;;;;;;;;;4.00;100.00;98819.94;5018595;28;19917;-86
2023/01/19 10:13:45;;;;;;;;;;;;;;;3.98;100.00;98828.75;5018654;28;19921;-89
2023/01/19 10:16:17;;;;;;;;;;;;;;;4.04;100.00;98827.69;5018617;28;20430;-84
2023/01/19 10:18:46;;;;;;;;;;;;;;;4.03;100.00;98832.06;5018297;28;19924;-89
2023/01/19 10:21:32;;;;;;;;;;;;;;;4.02;100.00;98827.75;5018384;28;19988;-84
2023/01/19 10:24:12;;;;;;;;;;;;;;;3.99;100.00;98835.72;5016906;28;19942;-87
2023/01/19 10:26:42;;;;;;;;;;;;;;;4.08;100.00;98839.78;5036050;28;19924;-85
2023/01/19 10:29:15;;;;;;;;;;;;;;;4.03;100.00;98842.56;5018208;28;19918;-87
2023/01/19 10:31:41;;;;;;;;;;;;;;;4.06;100.00;98837.22;5018397;28;19913;-84
2023/01/19 10:34:16;;;;;;;;;;;;;;;4.02;100.00;98840.88;5018226;28;20013;-85
2023/01/19 10:36:42;;;;;;;;;;;;;;;4.00;100.00;98840.91;5018157;28;19948;-84
2023/01/19 10:39:10;;;;;;;;;;;;;;;4.03;100.00;98839.94;5034786;28;19959;-86
2023/01/19 10:41:43;;;;;;;;;;;;;;;4.03;100.00;98831.22;5035466;28;20300;-84
2023/01/19 10:44:09;;;;;;;;;;;;;;;4.00;100.00;98830.41;5018013;28;19925;-83
2023/01/19 10:46:42;;;;;;;;;;;;;;;4.03;100.00;98825.97;5035619;28;19978;-87
2023/01/19 10:49:21;;;;;;;;;;;;;;;4.08;100.00;98822.28;5017717;28;19921;-86
2023/01/19 10:51:48;;;;;;;;;;;;;;;4.07;100.00;98833.69;5017540;28;19917;-85
2023/01/19 10:54:13;;;;;;;;;;;;;;;4.04;100.00;98818.06;5016399;28;19921;-85
2023/01/19 10:56:38;;;;;;;;;;;;;;;4.06;100.00;98813.63;5035480;28;19924;-85
2023/01/19 10:59:05;;;;;;;;;;;;;;;4.06;100.00;98816.25;5029206;28;19917;-88
2023/01/19 11:01:34;;;;;;;;;;;;;;;4.04;100.00;98817.19;5017713;28;20431;-86
2023/01/19 11:04:04;;;;;;;;;;;;;;;4.07;100.00;98809.22;5017714;28;19917;-84
2023/01/19 11:06:30;;;;;;;;;;;;;;;4.10;100.00;98809.13;5017441;28;20012;-84
2023/01/19 11:09:09;;;;;;;;;;;;;;;4.08;100.00;98809.19;5016465;28;20052;-92
2023/01/19 11:11:42;;;;;;;;;;;;;;;4.10;100.00;98812.63;5017462;28;19972;-84
2023/01/19 11:14:11;;;;;;;;;;;;;;;4.12;100.00;98804.72;5017333;28;19921;-84
2023/01/19 11:16:40;;;;;;;;;;;;;;;4.14;100.00;98808.13;5017425;28;19967;-85
2023/01/19 11:19:16;;;;;;;;;;;;;;;4.12;100.00;98810.81;5017409;28;19917;-90
2023/01/19 11:21:41;;;;;;;;;;;;;;;4.08;100.00;98811.81;5011113;28;19944;-84
2023/01/19 11:24:09;;;;;;;;;;;;;;;4.08;100.00;98811.81;5015825;28;20035;-86
2023/01/19 11:26:46;;;;;;;;;;;;;;;4.12;100.00;98804.72;5010878;28;20008;-84
2023/01/19 11:29:23;;;;;;;;;;;;;;;4.08;100.00;98810.97;5017063;28;19943;-84
2023/01/19 11:31:48;;;;;;;;;;;;;;;4.12;100.00;98802.94;5016885;28;19947;-84
2023/01/19 11:34:25;;;;;;;;;;;;;;;4.17;100.00;98805.41;5016907;28;20446;-85
2023/01/19 11:36:54;;;;;;;;;;;;;;;4.10;100.00;98807.38;5016699;28;19917;-85
2023/01/19 11:39:36;;;;;;;;;;;;;;;4.12;100.00;98804.72;5015298;28;19917;-88
2023/01/19 11:42:03;;;;;;;;;;;;;;;4.18;100.00;98800.13;5016474;28;19921;-88
2023/01/19 11:44:42;;;;;;;;;;;;;;;4.19;100.00;98807.06;5016677;28;20361;-86
2023/01/19 11:47:15;;;;;;;;;;;;;;;4.17;100.00;98797.56;5034488;28;19919;-84
2023/01/19 11:49:55;;;;;;;;;;;;;;;4.16;100.00;98801.06;5016741;28;20012;-85
2023/01/19 11:52:30;;;;;;;;;;;;;;;4.15;100.00;98797.59;5016706;28;19913;-84
2023/01/19 11:55:13;;;;;;;;;;;;;;;4.20;100.00;98794.84;5032964;28;20452;-87
2023/01/19 11:57:44;;;;;;;;;;;;;;;4.18;100.00;98794.03;5034121;28;19947;-85
2023/01/19 12:00:18;;;;;;;;;;;;;;;4.19;100.00;98786.09;5034124;28;19917;-84
2023/01/19 12:02:45;;;;;;;;;;;;;;;4.19;100.00;98790.50;5016164;28;19928;-86
2023/01/19 12:05:13;;;;;;;;;;;;;;;4.17;100.00;98785.28;5015972;28;19924;-85
2023/01/19 12:07:41;;;;;;;;;;;;;;;4.21;100.00;98782.56;5033853;28;19924;-85
2023/01/19 12:10:25;;;;;;;;;;;;;;;4.25;100.00;98785.03;5015153;28;19917;-88
2023/01/19 12:12:55;;;;;;;;;;;;;;;4.18;100.00;98783.56;5016109;28;20430;-85
2023/01/19 12:15:37;;;;;;;;;;;;;;;4.16;100.00;98783.59;5033892;28;20288;-85
2023/01/19 12:18:04;;;;;;;;;;;;;;;4.18;100.00;98787.00;5034067;28;19928;-83
2023/01/19 12:20:35;;;;;;;;;;;;;;;4.21;100.00;98788.66;5033670;28;19917;-85
2023/01/19 12:23:08;;;;;;;;;;;;;;;4.23;100.00;98786.00;5033686;28;20039;-85
2023/01/19 12:25:50;;;;;;;;;;;;;;;4.21;100.00;98783.41;5032355;28;19925;-85
2023/01/19 12:28:17;;;;;;;;;;;;;;;4.19;100.00;98778.22;5016062;28;19921;-83
2023/01/19 12:30:42;;;;;;;;;;;;;;;4.21;100.00;98775.56;5015870;28;20376;-83
2023/01/19 12:33:28;;;;;;;;;;;;;;;4.18;100.00;98768.66;5033503;28;19917;-86
2023/01/19 12:35:56;;;;;;;;;;;;;;;4.22;100.00;98773.81;5015763;28;19979;-84
2023/01/19 12:38:33;;;;;;;;;;;;;;;4.24;100.00;98777.22;5033400;28;19917;-84
2023/01/19 12:41:16;;;;;;;;;;;;;;;4.25;100.00;98773.72;5032182;28;19924;-83
2023/01/19 12:43:41;;;;;;;;;;;;;;;4.24;100.00;98766.75;5033492;28;19925;-86
2023/01/19 12:46:26;;;;;;;;;;;;;;;4.22;100.00;98765.94;5015606;28;19918;-84
2023/01/19 12:48:52;;;;;;;;;;;;;;;4.23;100.00;98765.88;5015669;28;19925;-84
2023/01/19 12:51:24;;;;;;;;;;;;;;;4.25;100.00;98765.84;5033382;28;19971;-85
2023/01/19 12:53:52;;;;;;;;;;;;;;;4.27;100.00;98761.41;5032029;28;20387;-82
2023/01/19 12:56:17;;;;;;;;;;;;;;;4.24;100.00;98764.13;5033275;28;19960;-83
2023/01/19 12:58:46;;;;;;;;;;;;;;;4.26;100.00;98754.44;5033158;28;20024;-83
2023/01/19 13:01:14;;;;;;;;;;;;;;;4.26;100.00;98757.94;5015438;28;19921;-83
2023/01/19 13:04:05;;;;;;;;;;;;;;;4.26;100.00;98763.16;5015491;28;20411;-84
2023/01/19 13:06:48;;;;;;;;;;;;;;;4.27;100.00;98775.34;4971289;28;19924;-85
2023/01/19 13:09:29;;;;;;;;;;;;;;;4.26;100.00;98764.91;5014150;28;19920;-88
2023/01/19 13:12:12;;;;;;;;;;;;;;;4.26;100.00;98762.28;5015403;28;19968;-85
2023/01/19 13:14:38;;;;;;;;;;;;;;;4.26;100.00;98757.03;5016136;28;19964;-83
2023/01/19 13:17:05;;;;;;;;;;;;;;;4.26;100.00;98754.44;5019415;28;19960;-84
2023/01/19 13:19:50;;;;;;;;;;;;;;;4.26;100.00;98755.31;5019438;28;19921;-87
2023/01/19 13:22:34;;;;;;;;;;;;;;;4.25;100.00;98757.97;5018659;28;19917;-90
2023/01/19 13:25:04;;;;;;;;;;;;;;;4.28;100.00;98763.13;5017989;28;20364;-84
2023/01/19 13:27:30;;;;;;;;;;;;;;;4.23;100.00;98762.38;5019270;28;20292;-83
2023/01/19 13:29:55;;;;;;;;;;;;;;;4.27;100.00;98761.41;5037077;28;19917;-84
2023/01/19 13:32:23;;;;;;;;;;;;;;;4.26;100.00;98760.53;5019275;28;19924;-84
2023/01/19 13:34:56;;;;;;;;;;;;;;;4.26;100.00;98762.28;5019202;28;19924;-83
2023/01/19 13:37:22;;;;;;;;;;;;;;;4.24;100.00;98756.25;5036876;28;20399;-83
2023/01/19 13:39:50;;;;;;;;;;;;;;;4.24;100.00;98751.84;5035517;28;19921;-88
2023/01/19 13:42:28;;;;;;;;;;;;;;;4.29;100.00;98755.19;5018835;28;20384;-88
2023/01/19 13:44:56;;;;;;;;;;;;;;;4.26;100.00;98754.44;5037039;28;19917;-88
2023/01/19 13:47:24;;;;;;;;;;;;;;;4.25;100.00;98753.56;5036766;28;19946;-88
2023/01/19 13:49:54;;;;;;;;;;;;;;;4.24;100.00;98753.63;5036731;28;20001;-90
2023/01/19 13:52:24;;;;;;;;;;;;;;;4.26;100.00;98757.03;5019103;28;19913;-91
2023/01/19 13:54:51;;;;;;;;;;;;;;;4.27;100.00;98756.16;5017611;28;19918;-87
2023/01/19 13:57:25;;;;;;;;;;;;;;;4.31;100.00;98755.16;5036519;28;20335;-83
2023/01/19 14:00:02;;;;;;;;;;;;;;;4.32;100.00;98764.72;5018525;28;20047;-86
2023/01/19 14:02:28;;;;;;;;;;;;;;;4.29;100.00;98762.19;5018707;28;19917;-87
2023/01/19 14:04:56;;;;;;;;;;;;;;;4.25;100.00;98761.44;5018483;28;20043;-90
2023/01/19 14:07:25;;;;;;;;;;;;;;;4.30;100.00;98763.91;5036439;28;19917;-85
2023/01/19 14:10:05;;;;;;;;;;;;;;;4.29;100.00;98765.69;5034942;28;19927;-87
2023/01/19 14:12:33;;;;;;;;;;;;;;;4.29;100.00;98759.56;5018488;28;20395;-83
2023/01/19 14:14:59;;;;;;;;;;;;;;;4.30;100.00;98761.28;5036219;28;20364;-85
2023/01/19 14:17:29;;;;;;;;;;;;;;;4.29;100.00;98751.69;5036230;28;19956;-85
2023/01/19 14:19:55;;;;;;;;;;;;;;;4.30;100.00;98761.28;5036254;28;19925;-84
2023/01/19 14:22:35;;;;;;;;;;;;;;;4.29;100.00;98764.81;5018534;28;19931;-87
2023/01/19 14:25:20;;;;;;;;;;;;;;;4.32;100.00;98767.34;5034776;28;20371;-84
2023/01/19 14:27:45;;;;;;;;;;;;;;;4.32;100.00;98762.09;5035181;28;20364;-84
2023/01/19 14:30:18;;;;;;;;;;;;;;;4.30;100.00;98759.50;5035828;28;19977;-84
2023/01/19 14:32:45;;;;;;;;;;;;;;;4.30;100.00;98754.28;5035864;28;19963;-85
2023/01/19 14:35:11;;;;;;;;;;;;;;;4.32;100.00;98759.47;5035749;28;19967;-83
2023/01/19 14:37:43;;;;;;;;;;;;;;;4.33;100.00;98758.56;5035743;28;19917;-84
2023/01/19 14:40:14;;;;;;;;;;;;;;;4.33;100.00;98761.19;5034476;28;19924;-84
2023/01/19 14:42:52;;;;;;;;;;;;;;;4.30;100.00;98761.28;5035417;28;19974;-85
2023/01/19 14:45:22;;;;;;;;;;;;;;;4.33;100.00;98762.03;5035750;28;19960;-84
2023/01/19 14:47:53;;;;;;;;;;;;;;;4.33;100.00;98762.03;5035580;28;20396;-84
2023/01/19 14:50:23;;;;;;;;;;;;;;;4.33;100.00;98767.28;5035630;28;19917;-84
2023/01/19 14:52:51;;;;;;;;;;;;;;;4.32;100.00;98762.09;5017768;28;20292;-84
2023/01/19 14:55:22;;;;;;;;;;;;;;;4.34;100.00;98761.13;5034076;28;19961;-85
2023/01/19 14:57:47;;;;;;;;;;;;;;;4.35;100.00;98773.31;5035360;28;19917;-83
2023/01/19 15:00:17;;;;;;;;;;;;;;;4.36;100.00;98767.19;5035201;28;19921;-84
2023/01/19 15:02:42;;;;;;;;;;;;;;;4.36;100.00;98764.56;5035300;28;19963;-87
2023/01/19 15:05:08;;;;;;;;;;;;;;;4.35;100.00;98767.22;5035366;28;19956;-84
2023/01/19 15:07:35;;;;;;;;;;;;;;;4.37;100.00;98773.28;5017416;28;20327;-82
2023/01/19 15:10:01;;;;;;;;;;;;;;;4.40;100.00;98770.56;5033697;28;19948;-84
2023/01/19 15:12:26;;;;;;;;;;;;;;;4.38;100.00;98775.00;5017340;28;20296;-84
2023/01/19 15:14:52;;;;;;;;;;;;;;;4.39;100.00;98781.97;5017344;28;19921;-86
2023/01/19 15:17:29;;;;;;;;;;;;;;;4.36;100.00;98777.69;5017344;28;20364;-85
2023/01/19 15:19:54;;;;;;;;;;;;;;;4.39;100.00;98774.09;5034899;28;19975;-84
2023/01/19 15:22:21;;;;;;;;;;;;;;;4.40;100.00;98785.44;5017040;28;19991;-84
2023/01/19 15:24:46;;;;;;;;;;;;;;;4.38;100.00;98787.28;5015726;28;20011;-85
2023/01/19 15:27:12;;;;;;;;;;;;;;;4.38;100.00;98779.41;5017039;28;20431;-86
2023/01/19 15:29:39;;;;;;;;;;;;;;;4.39;100.00;98781.97;5016930;28;19917;-85
2023/01/19 15:32:04;;;;;;;;;;;;;;;4.39;100.00;98781.97;5017051;28;19917;-84
2023/01/19 15:34:29;;;;;;;;;;;;;;;4.40;100.00;98783.66;5034618;28;20383;-85
2023/01/19 15:36:54;;;;;;;;;;;;;;;4.39;100.00;98789.84;5010568;28;19948;-84
2023/01/19 15:39:20;;;;;;;;;;;;;;;4.42;100.00;98791.47;5014448;28;19924;-84
2023/01/19 15:41:45;;;;;;;;;;;;;;;4.44;100.00;98784.44;5016529;28;19927;-85
2023/01/19 15:44:10;;;;;;;;;;;;;;;4.42;100.00;98786.25;5034418;28;20000;-84
2023/01/19 15:46:36;;;;;;;;;;;;;;;4.42;100.00;98784.50;5016730;28;19917;-83
2023/01/19 15:49:01;;;;;;;;;;;;;;;4.44;100.00;98779.19;5010499;28;19917;-84
2023/01/19 15:51:27;;;;;;;;;;;;;;;4.44;100.00;98779.19;5016599;28;20288;-87
2023/01/19 15:53:53;;;;;;;;;;;;;;;4.45;100.00;98784.38;5015104;28;19956;-85
2023/01/19 15:56:18;;;;;;;;;;;;;;;4.45;100.00;98779.16;5016630;28;20439;-83
2023/01/19 15:58:43;;;;;;;;;;;;;;;4.44;100.00;98781.81;5016337;28;19917;-84
2023/01/19 16:01:11;;;;;;;;;;;;;;;4.46;100.00;98782.63;5034103;28;19987;-84
2023/01/19 16:03:36;;;;;;;;;;;;;;;4.48;100.00;98781.66;5016410;28;19913;-84
2023/01/19 16:06:01;;;;;;;;;;;;;;;4.46;100.00;98780.84;5016160;28;19928;-84
2023/01/19 16:08:27;;;;;;;;;;;;;;;4.45;100.00;98781.78;5034183;28;20007;-84
2023/01/19 16:10:52;;;;;;;;;;;;;;;4.46;100.00;98775.59;5014925;28;19924;-85
2023/01/19 16:13:17;;;;;;;;;;;;;;;4.47;100.00;98785.19;5016291;28;19960;-84
2023/01/19 16:15:43;;;;;;;;;;;;;;;4.50;100.00;98784.22;5034042;28;20364;-83
2023/01/19 16:18:08;;;;;;;;;;;;;;;4.50;100.00;98787.72;5016209;28;20280;-85
2023/01/19 16:20:33;;;;;;;;;;;;;;;4.51;100.00;98786.78;5016174;28;19921;-85
2023/01/19 16:22:59;;;;;;;;;;;;;;;4.53;100.00;98791.97;5033756;28;20376;-84
2023/01/19 16:25:24;;;;;;;;;;;;;;;4.51;100.00;98789.41;5032480;28;19917;-86
2023/01/19 16:27:52;;;;;;;;;;;;;;;4.51;100.00;98788.56;5016061;28;19917;-88
2023/01/19 16:30:18;;;;;;;;;;;;;;;4.53;100.00;98800.72;5008434;28;19921;-83
2023/01/19 16:32:44;;;;;;;;;;;;;;;4.50;100.00;98792.97;5032155;28;19948;-86
2023/01/19 16:35:09;;;;;;;;;;;;;;;4.52;100.00;98795.53;5014354;28;19927;-84
2023/01/19 16:37:35;;;;;;;;;;;;;;;4.50;100.00;98811.31;5014710;28;19921;-81
2023/01/19 16:40:00;;;;;;;;;;;;;;;4.51;100.00;98799.06;5013283;28;19921;-82
2023/01/19 16:42:26;;;;;;;;;;;;;;;4.53;100.00;98810.34;5028739;28;20296;-85
2023/01/19 16:44:51;;;;;;;;;;;;;;;4.54;100.00;98798.94;5014126;28;20356;-84
2023/01/19 16:47:16;;;;;;;;;;;;;;;4.54;100.00;98799.78;5011225;28;19913;-83
2023/01/19 16:49:41;;;;;;;;;;;;;;;4.57;100.00;98811.13;5033079;28;20308;-82
2023/01/19 16:52:10;;;;;;;;;;;;;;;4.54;100.00;98807.66;5008955;28;20011;-83
2023/01/19 16:54:35;;;;;;;;;;;;;;;4.54;100.00;98805.03;5013096;28;19917;-84
2023/01/19 16:57:00;;;;;;;;;;;;;;;4.55;100.00;98806.78;5014376;28;19963;-82
2023/01/19 16:59:27;;;;;;;;;;;;;;;4.58;100.00;98818.06;4997396;28;19921;-84
2023/01/19 17:02:09;;;;;;;;;;;;;;;4.57;100.00;98811.13;4975107;28;20219;-83
2023/01/19 17:04:34;;;;;;;;;;;;;;;4.58;100.00;98812.81;4999346;28;19929;-83
2023/01/19 17:07:00;;;;;;;;;;;;;;;4.60;100.00;98809.25;5012800;28;20389;-83
2023/01/19 17:09:25;;;;;;;;;;;;;;;4.60;100.00;98817.13;5008321;28;19929;-83
2023/01/19 17:11:50;;;;;;;;;;;;;;;4.60;100.00;98816.25;5013375;28;20403;-85
2023/01/19 17:14:19;;;;;;;;;;;;;;;4.62;100.00;98814.44;5014382;28;19924;-89
2023/01/19 17:16:44;;;;;;;;;;;;;;;4.63;100.00;98816.16;5010903;28;20664;-84
2023/01/19 17:19:12;;;;;;;;;;;;;;;4.62;100.00;98809.19;5004831;28;20105;-84
2023/01/19 17:21:37;;;;;;;;;;;;;;;4.63;100.00;98816.16;5012983;28;19921;-90
2023/01/19 17:24:03;;;;;;;;;;;;;;;4.65;100.00;98814.34;5009493;28;19929;-84
2023/01/19 17:26:29;;;;;;;;;;;;;;;4.65;100.00;98814.34;5011169;28;20372;-86
2023/01/19 17:29:03;;;;;;;;;;;;;;;4.65;100.00;98815.19;5013147;28;20008;-85
2023/01/19 17:31:29;;;;;;;;;;;;;;;4.66;100.00;98821.28;5014969;28;20319;-85
2023/01/19 17:33:54;;;;;;;;;;;;;;;4.67;100.00;98828.25;5026631;28;19917;-85
2023/01/19 17:36:21;;;;;;;;;;;;;;;4.65;100.00;98824.81;5014844;28;19936;-88
2023/01/19 17:38:49;;;;;;;;;;;;;;;4.66;100.00;98822.16;5029942;28;19921;-85
2023/01/19 17:41:16;;;;;;;;;;;;;;;4.69;100.00;98827.31;5012267;28;19921;-85
2023/01/19 17:43:41;;;;;;;;;;;;;;;4.67;100.00;98828.25;5030608;28;20327;-87
2023/01/19 17:46:06;;;;;;;;;;;;;;;4.69;100.00;98831.66;4997861;28;19917;-85
2023/01/19 17:48:32;;;;;;;;;;;;;;;4.69;100.00;98827.31;4994817;28;19926;-87
2023/01/19 17:51:01;;;;;;;;;;;;;;;4.72;100.00;98828.94;5002245;28;19929;-84
2023/01/19 17:53:27;;;;;;;;;;;;;;;4.73;100.00;98828.03;5012317;28;19971;-85
2023/01/19 17:59:06;;;;;;;;;;;;;;;4.73;100.00;98833.28;5008584;28;20118;-90
2023/01/19 18:01:49;;;;;;;;;;;;;;;4.75;100.00;98835.88;5008330;28;19925;-89
2023/01/19 18:04:20;;;;;;;;;;;;;;;4.75;100.00;98835.88;4998245;28;19913;-90
2023/01/19 18:14:42;;;;;;;;;;;;;;;;;;;;;
2023/01/19 18:17:07;;;;;;;;;;;;;;;4.76;100.00;98841.06;4995282;28;19930;-90
2023/01/19 18:19:35;;;;;;;;;;;;;;;4.77;100.00;98834.03;4978495;28;19929;-90
2023/01/19 18:22:23;;;;;;;;;;;;;;;4.76;100.00;98837.59;4976012;28;19954;-90
2023/01/19 18:24:50;;;;;;;;;;;;;;;4.79;100.00;98837.50;4994317;28;19922;-88
2023/01/19 18:27:19;;;;;;;;;;;;;;;4.80;100.00;98841.81;4994016;28;19933;-88
2023/01/19 18:29:46;;;;;;;;;;;;;;;4.80;100.00;98841.81;4994467;28;20290;-89
2023/01/19 18:32:37;;;;;;;;;;;;;;;4.80;100.00;98841.81;4994172;28;19928;-89
2023/01/19 18:35:11;;;;;;;;;;;;;;;4.83;100.00;98844.31;4995476;28;20436;-89
2023/01/19 18:37:46;;;;;;;;;;;;;;;4.82;100.00;98845.22;5013554;28;19971;-91
2023/01/19 18:40:17;;;;;;;;;;;;;;;4.83;100.00;98839.09;4994789;28;20360;-90
2023/01/19 18:42:50;;;;;;;;;;;;;;;4.86;100.00;98844.22;4986669;28;19929;-92
2023/01/19 18:45:43;;;;;;;;;;;;;;;4.83;100.00;98834.69;4981007;28;20431;-93
2023/01/19 18:48:11;;;;;;;;;;;;;;;4.84;100.00;98839.03;5024432;23;20380;-91
2023/01/19 18:50:36;;;;;;;;;;;;;;;4.86;100.00;98834.56;5000809;28;19937;-91
2023/01/19 18:53:30;;;;;;;;;;;;;;;4.86;100.00;98838.97;4997708;28;20376;-89
2023/01/19 18:56:02;;;;;;;;;;;;;;;4.87;100.00;98840.69;5030666;28;20270;-88
2023/01/19 18:58:28;;;;;;;;;;;;;;;4.88;100.00;98837.16;5015276;28;19922;-91
2023/01/19 19:00:54;;;;;;;;;;;;;;;4.96;100.00;98842.13;5015056;28;19925;-89
2023/01/19 19:03:44;;;;;;;;;;;;;;;4.89;100.00;98844.13;5015477;28;19929;-91
2023/01/19 19:06:42;;;;;;;;;;;;;;;4.92;100.00;98844.03;5017328;28;19921;-90
2023/01/19 19:09:08;;;;;;;;;;;;;;;4.92;100.00;98849.28;5007544;28;20299;-89
2023/01/19 19:11:33;;;;;;;;;;;;;;;4.91;100.00;98840.53;5009843;28;19935;-89
2023/01/19 19:14:18;;;;;;;;;;;;;;;4.95;100.00;98843.91;5015265;28;19929;-90
2023/01/19 19:16:44;;;;;;;;;;;;;;;4.90;100.00;98840.59;5014332;28;19929;-89
2023/01/19 19:19:11;;;;;;;;;;;;;;;4.93;100.00;98847.50;5034773;28;19971;-89
2023/01/19 19:21:37;;;;;;;;;;;;;;;4.95;100.00;98843.91;5017150;28;19921;-89
2023/01/19 19:24:02;;;;;;;;;;;;;;;4.94;100.00;98841.34;5032599;28;19917;-88
2023/01/19 19:26:53;;;;;;;;;;;;;;;4.95;100.00;98843.06;5011245;28;20295;-89
2023/01/19 19:29:18;;;;;;;;;;;;;;;4.95;100.00;98838.66;4996132;23;19926;-90
2023/01/19 19:34:56;;;;;;;;;;;;;;;4.95;100.00;98845.69;5015071;28;19925;-90
2023/01/19 19:40:46;;;;;;;;;;;;;;;4.97;100.00;98857.00;4982280;28;19921;-89
2023/01/19 19:43:11;;;;;;;;;;;;;;;4.97;100.00;98849.09;4983114;28;19922;-90
2023/01/19 19:45:37;;;;;;;;;;;;;;;4.98;100.00;98856.94;4996743;28;19932;-90
2023/01/19 19:48:05;;;;;;;;;;;;;;;4.98;100.00;98850.81;5011703;28;20401;-91
2023/01/19 19:53:36;;;;;;;;;;;;;;;4.99;100.00;98861.25;4933061;29;19928;-90
2023/01/19 19:56:02;;;;;;;;;;;;;;;5.00;100.00;98862.13;4960908;28;19944;-90
2023/01/19 20:01:31;;;;;;;;;;;;;;;5.03;100.00;98862.03;4992579;28;20015;-89
2023/01/19 20:03:58;;;;;;;;;;;;;;;5.02;100.00;98855.06;4997681;28;20565;-89
2023/01/19 20:06:24;;;;;;;;;;;;;;;5.04;100.00;98866.34;4986369;28;19922;-89
2023/01/19 20:08:51;;;;;;;;;;;;;;;5.06;100.00;98861.94;4993815;28;20297;-91
2023/01/19 20:11:18;;;;;;;;;;;;;;;5.04;100.00;98868.97;4990697;28;20220;-90
2023/01/19 20:13:54;;;;;;;;;;;;;;;;;;;;;
2023/01/19 20:16:20;;;;;;;;;;;;;;;5.05;100.00;98870.69;5007718;28;19921;-91
2023/01/19 20:18:55;;;;;;;;;;;;;;;5.06;100.00;98875.06;4993392;28;19917;-91
2023/01/19 20:27:27;;;;;;;;;;;;;;;5.06;100.00;98882.94;5166302;23;19951;-85
2023/01/19 20:29:56;;;;;;;;;;;;;;;5.06;100.00;98888.19;5000085;28;20410;-86
2023/01/19 20:32:22;;;;;;;;;;;;;;;5.07;100.00;98889.88;4973897;28;19929;-86
2023/01/19 20:34:47;;;;;;;;;;;;;;;5.05;100.00;98887.31;4994598;28;19917;-88
2023/01/19 20:37:12;;;;;;;;;;;;;;;5.09;100.00;98886.31;4975066;28;20024;-86
2023/01/19 20:39:38;;;;;;;;;;;;;;;5.07;100.00;98889.88;4983383;28;19932;-86
2023/01/19 20:42:04;;;;;;;;;;;;;;;5.09;100.00;98888.09;4975446;28;20052;-85